Time;durP1;ratioP1;P1;durP2;ratioP2;P2;SDS_P1;SDS_P2;PMS_P1;PMS_P2;Temp;Humidity;BMP_temperature;BMP_pressure;BME280_temperature;BME280_humidity;BME280_pressure;Samples;Min_cycle;Max_cycle;Signal;HPM_P1;HPM_P2
2023/10/10 00:00:28;;;;;;;0.25;0.25;;;13.60;99.90;;;;;;5114368;28;20058;-63
2023/10/10 00:02:55;;;;;;;0.10;0.10;;;14.20;99.90;;;;;;5113913;28;20044;-63
2023/10/10 00:05:33;;;;;;;0.20;0.20;;;13.80;99.90;;;;;;5114170;28;20502;-64
2023/10/10 00:08:00;;;;;;;0.20;0.20;;;14.20;99.90;;;;;;5114301;28;20457;-65
2023/10/10 00:10:27;;;;;;;0.28;0.28;;;14.60;99.90;;;;;;5114009;28;20130;-65
2023/10/10 00:12:54;;;;;;;1.30;0.70;;;14.80;99.90;;;;;;5114105;28;20043;-63
2023/10/10 00:15:25;;;;;;;0.50;0.50;;;14.70;99.90;;;;;;5113894;28;20126;-63
2023/10/10 00:17:51;;;;;;;0.20;0.20;;;14.90;99.90;;;;;;5113828;28;20048;-63
2023/10/10 00:20:21;;;;;;;0.17;0.17;;;14.30;99.90;;;;;;5113788;28;20053;-63
2023/10/10 00:22:48;;;;;;;0.20;0.20;;;13.90;99.90;;;;;;5113594;28;20060;-63
2023/10/10 00:25:24;;;;;;;0.10;0.10;;;13.40;99.90;;;;;;5113902;28;20059;-63
2023/10/10 00:27:55;;;;;;;0.43;0.43;;;13.80;99.90;;;;;;5113679;28;20047;-63
2023/10/10 00:30:22;;;;;;;0.10;0.10;;;14.50;99.90;;;;;;5113700;28;20044;-63
2023/10/10 00:32:50;;;;;;;0.17;0.17;;;14.70;99.90;;;;;;5113471;28;20056;-63
2023/10/10 00:35:17;;;;;;;0.35;0.35;;;14.30;99.90;;;;;;5113439;28;20050;-64
2023/10/10 00:37:44;;;;;;;0.30;0.30;;;14.60;99.90;;;;;;5113496;28;20126;-64
2023/10/10 00:40:17;;;;;;;0.30;0.30;;;14.60;99.90;;;;;;5113494;28;20059;-64
2023/10/10 00:42:42;;;;;;;0.30;0.30;;;14.50;99.90;;;;;;5113322;28;20043;-63
2023/10/10 00:45:12;;;;;;;0.10;0.10;;;14.30;99.90;;;;;;5113230;28;20055;-65
2023/10/10 00:47:50;;;;;;;0.20;0.20;;;14.90;99.90;;;;;;5113101;28;20048;-63
2023/10/10 00:50:18;;;;;;;0.77;0.50;;;14.20;99.90;;;;;;5113446;28;20087;-64
2023/10/10 00:52:56;;;;;;;0.60;0.47;;;15.10;99.90;;;;;;5113446;28;20043;-65
2023/10/10 00:55:24;;;;;;;0.28;0.28;;;14.80;99.90;;;;;;5113506;28;20043;-63
2023/10/10 00:57:58;;;;;;;0.20;0.20;;;13.80;99.90;;;;;;5113245;28;20097;-63
2023/10/10 01:00:29;;;;;;;0.43;0.43;;;13.90;99.90;;;;;;5111832;28;20059;-64
2023/10/10 01:03:19;;;;;;;0.10;0.10;;;13.50;99.90;;;;;;5112817;28;20052;-64
2023/10/10 01:05:52;;;;;;;0.10;0.10;;;13.90;99.90;;;;;;5112826;28;20517;-63
2023/10/10 01:08:19;;;;;;;0.13;0.13;;;14.20;99.90;;;;;;5111457;28;20465;-63
2023/10/10 01:10:49;;;;;;;0.20;0.20;;;13.70;99.90;;;;;;5112568;28;20059;-63
2023/10/10 01:13:15;;;;;;;0.15;0.15;;;14.50;99.90;;;;;;5113078;28;20058;-63
2023/10/10 01:15:43;;;;;;;0.30;0.30;;;13.80;99.90;;;;;;5112748;28;20051;-64
2023/10/10 01:18:13;;;;;;;1.38;1.27;;;14.50;99.90;;;;;;5112302;28;20104;-63
2023/10/10 01:20:45;;;;;;;0.65;0.63;;;14.50;99.90;;;;;;5112550;28;20407;-64
2023/10/10 01:23:15;;;;;;;0.35;0.30;;;14.30;99.90;;;;;;5112403;28;20404;-63
2023/10/10 01:25:45;;;;;;;0.25;0.25;;;14.30;99.90;;;;;;5112631;28;20047;-63
2023/10/10 01:31:17;;;;;;;0.20;0.20;;;14.20;99.90;;;;;;5069174;28;20048;-65
2023/10/10 01:33:47;;;;;;;0.52;0.38;;;13.90;99.90;;;;;;5104249;28;20060;-65
2023/10/10 01:36:16;;;;;;;2.03;0.70;;;13.40;99.90;;;;;;5112452;28;20048;-63
2023/10/10 01:39:07;;;;;;;0.32;0.32;;;13.30;99.90;;;;;;5112367;28;20514;-62
2023/10/10 01:41:38;;;;;;;0.10;0.10;;;13.50;99.90;;;;;;5111006;28;20047;-63
2023/10/10 01:44:10;;;;;;;0.40;0.40;;;14.00;99.90;;;;;;5112060;28;20047;-63
2023/10/10 01:46:36;;;;;;;0.38;0.38;;;13.40;99.90;;;;;;5112457;28;20062;-64
2023/10/10 01:49:02;;;;;;;0.38;0.38;;;13.40;99.90;;;;;;5112064;28;20040;-63
2023/10/10 01:51:33;;;;;;;1.73;0.63;;;13.90;99.90;;;;;;5112207;28;20052;-63
2023/10/10 01:54:13;;;;;;;0.52;0.50;;;13.30;99.90;;;;;;5112186;28;20075;-64
2023/10/10 01:56:39;;;;;;;0.10;0.10;;;14.20;99.90;;;;;;5112067;28;20158;-63
2023/10/10 01:59:09;;;;;;;0.75;0.55;;;14.30;99.90;;;;;;5112232;28;20188;-62
2023/10/10 02:01:35;;;;;;;0.20;0.20;;;14.50;99.90;;;;;;5112416;28;20059;-63
2023/10/10 02:04:06;;;;;;;0.40;0.40;;;14.20;99.90;;;;;;5112304;28;20052;-63
2023/10/10 02:06:34;;;;;;;0.20;0.20;;;14.60;99.90;;;;;;5112229;28;20380;-62
2023/10/10 02:09:11;;;;;;;0.13;0.13;;;14.70;99.90;;;;;;5111969;28;20071;-65
2023/10/10 02:11:49;;;;;;;0.57;0.57;;;14.40;99.90;;;;;;5112146;28;20130;-63
2023/10/10 02:14:18;;;;;;;0.35;0.35;;;14.80;99.90;;;;;;5111807;28;20135;-63
2023/10/10 02:16:47;;;;;;;0.32;0.32;;;13.80;99.90;;;;;;5111887;28;20039;-63
2023/10/10 02:19:24;;;;;;;1.27;0.47;;;14.80;99.90;;;;;;5111795;28;20044;-63
2023/10/10 02:21:51;;;;;;;0.32;0.32;;;14.20;99.90;;;;;;5111780;28;20044;-63
2023/10/10 02:26:52;;;;;;;0.70;0.68;;;15.00;99.90;;;;;;5111759;28;20051;-64
2023/10/10 02:29:32;;;;;;;1.77;0.50;;;14.00;99.90;;;;;;5111549;28;20043;-63
2023/10/10 02:32:18;;;;;;;1.52;0.70;;;14.50;99.90;;;;;;5111592;28;20058;-63
2023/10/10 02:34:56;;;;;;;0.60;0.60;;;14.80;99.90;;;;;;5111755;28;20126;-63
2023/10/10 02:40:42;;;;;;;0.30;0.30;;;13.80;99.90;;;;;;5112535;28;20062;-62
2023/10/10 02:42:50;;;;;;;0.82;0.82;;;13.40;99.90;;;;;;5112423;28;20563;-64
2023/10/10 02:45:28;;;;;;;0.30;0.30;;;14.30;99.90;;;;;;5115766;28;20130;-62
2023/10/10 02:47:54;;;;;;;0.45;0.45;;;13.20;99.90;;;;;;5115640;28;20054;-63
2023/10/10 02:51:03;;;;;;;0.47;0.47;;;14.20;99.90;;;;;;5115503;28;20093;-63
2023/10/10 02:53:09;;;;;;;0.40;0.40;;;13.20;99.90;;;;;;5112224;28;20053;-63
2023/10/10 02:55:41;;;;;;;0.20;0.20;;;14.40;99.90;;;;;;5115466;28;20051;-63
2023/10/10 02:58:20;;;;;;;0.68;0.40;;;14.30;99.90;;;;;;5115418;28;20173;-62
2023/10/10 03:00:50;;;;;;;0.60;0.60;;;14.50;99.90;;;;;;5115277;28;20049;-64
2023/10/10 03:03:19;;;;;;;0.38;0.38;;;13.40;99.90;;;;;;5114855;28;20176;-63
2023/10/10 03:05:51;;;;;;;2.25;0.30;;;14.60;99.90;;;;;;5115349;28;20126;-64
2023/10/10 03:08:34;;;;;;;0.52;0.52;;;14.50;99.90;;;;;;5115258;28;20104;-63
2023/10/10 03:11:01;;;;;;;0.30;0.30;;;14.10;99.90;;;;;;5115163;28;20110;-63
2023/10/10 03:13:35;;;;;;;0.68;0.68;;;13.40;99.90;;;;;;5115074;28;20046;-63
2023/10/10 03:18:54;;;;;;;0.77;0.77;;;14.70;99.90;;;;;;5115171;28;20085;-64
2023/10/10 03:21:44;;;;;;;1.75;0.40;;;14.10;99.90;;;;;;5115002;28;20134;-63
2023/10/10 03:29:20;;;;;;;0.40;0.40;;;13.60;99.90;;;;;;5114810;28;20051;-63
2023/10/10 03:31:47;;;;;;;0.65;0.40;;;14.50;99.90;;;;;;5114799;28;20140;-63
2023/10/10 03:34:21;;;;;;;0.32;0.32;;;14.00;99.90;;;;;;5114692;28;20059;-63
2023/10/10 03:37:10;;;;;;;0.20;0.20;;;13.50;99.90;;;;;;5114517;28;20054;-64
2023/10/10 05:25:12;;;;;;;0.30;0.30;;;15.40;99.90;;;;;;5112556;28;20062;-63
2023/10/10 05:27:41;;;;;;;1.05;0.43;;;15.10;99.90;;;;;;5112725;28;20057;-63
2023/10/10 05:30:25;;;;;;;0.70;0.57;;;15.50;99.90;;;;;;5112605;28;20452;-63
2023/10/10 05:33:05;;;;;;;0.30;0.30;;;15.60;99.90;;;;;;5112409;28;20499;-63
2023/10/10 05:35:36;;;;;;;0.35;0.35;;;15.00;99.90;;;;;;5112345;28;20550;-63
2023/10/10 05:38:04;;;;;;;0.60;0.60;;;14.50;99.90;;;;;;5112625;28;20050;-64
2023/10/10 05:40:33;;;;;;;0.45;0.45;;;15.20;99.90;;;;;;5112359;28;20044;-62
2023/10/10 05:43:49;;;;;;;0.93;0.65;;;15.90;99.90;;;;;;5112160;28;20177;-63
2023/10/10 05:45:48;;;;;;;0.28;0.28;;;15.60;99.90;;;;;;5104447;28;20075;-64
2023/10/10 05:48:14;;;;;;;0.73;0.73;;;14.90;99.90;;;;;;5112141;28;20074;-63
2023/10/10 05:50:40;;;;;;;;;;;13.90;99.90;;;;;;5113036;28;20070;-62
2023/10/10 05:53:07;;;;;;;0.30;0.30;;;13.90;99.90;;;;;;5112218;28;19920;-63
2023/10/10 05:55:34;;;;;;;0.32;0.32;;;13.80;99.90;;;;;;5112089;28;20051;-63
2023/10/10 05:58:03;;;;;;;0.38;0.38;;;14.80;99.90;;;;;;5112091;28;20048;-62
2023/10/10 06:00:32;;;;;;;0.20;0.20;;;15.50;99.90;;;;;;5111936;28;20089;-63
2023/10/10 06:02:58;;;;;;;1.45;0.95;;;15.40;99.90;;;;;;5111843;28;20090;-62
2023/10/10 06:05:24;;;;;;;0.98;0.47;;;13.80;99.90;;;;;;5111862;28;20086;-63
2023/10/10 06:07:49;;;;;;;;;;;14.20;99.90;;;;;;5112394;28;20048;-63
2023/10/10 06:10:16;;;;;;;0.10;0.10;;;15.10;99.90;;;;;;5111871;28;19930;-62
2023/10/10 06:12:46;;;;;;;0.93;0.60;;;13.90;99.90;;;;;;5112312;28;20092;-63
2023/10/10 06:15:17;;;;;;;0.28;0.28;;;15.20;99.90;;;;;;5107941;27;20075;-62
2023/10/10 06:18:08;;;;;;;1.05;0.63;;;13.60;99.90;;;;;;5114015;28;20055;-64
2023/10/10 06:20:40;;;;;;;0.30;0.30;;;15.10;99.90;;;;;;5114011;28;20112;-62
2023/10/10 06:23:11;;;;;;;0.30;0.22;;;14.70;99.90;;;;;;5125460;27;20040;-62
2023/10/10 06:25:38;;;;;;;0.70;0.70;;;15.30;99.90;;;;;;5109388;28;20073;-62
2023/10/10 06:28:06;;;;;;;1.17;1.00;;;13.90;99.90;;;;;;5109346;28;20054;-63
2023/10/10 06:30:37;;;;;;;0.90;0.90;;;14.10;99.90;;;;;;5111201;28;20502;-63
2023/10/10 06:33:10;;;;;;;2.97;1.67;;;15.20;99.90;;;;;;5111277;28;20105;-62
2023/10/10 06:35:38;;;;;;;2.35;1.40;;;14.40;99.90;;;;;;5110473;28;20427;-63
2023/10/10 06:38:12;;;;;;;2.40;1.15;;;15.50;99.90;;;;;;5111071;28;20047;-63
2023/10/10 06:40:52;;;;;;;2.95;1.42;;;15.20;99.90;;;;;;5111573;28;20134;-62
2023/10/10 06:43:21;;;;;;;1.38;1.27;;;14.40;99.90;;;;;;5110994;28;20619;-65
2023/10/10 06:45:56;;;;;;;0.45;0.20;;;13.90;99.90;;;;;;5111586;28;20039;-62
2023/10/10 06:48:22;;;;;;;1.10;1.00;;;15.80;99.90;;;;;;5111152;28;20061;-62
2023/10/10 06:50:51;;;;;;;2.10;1.63;;;14.20;99.90;;;;;;5110180;28;20047;-61
2023/10/10 06:53:36;;;;;;;3.13;1.73;;;14.30;99.90;;;;;;5111206;28;20112;-61
2023/10/10 06:56:17;;;;;;;2.95;1.55;;;14.30;99.90;;;;;;5111138;28;20552;-60
2023/10/10 06:58:47;;;;;;;1.55;1.23;;;15.30;99.90;;;;;;5110651;28;20051;-60
2023/10/10 07:01:19;;;;;;;2.47;2.28;;;14.60;99.90;;;;;;5110833;28;20082;-61
2023/10/10 07:03:54;;;;;;;2.58;2.00;;;15.40;99.90;;;;;;5110912;28;20063;-60
2023/10/10 07:06:21;;;;;;;4.13;1.20;;;14.70;99.90;;;;;;5110159;28;20112;-61
2023/10/10 07:09:03;;;;;;;2.72;2.17;;;14.70;99.90;;;;;;5111008;28;20051;-62
2023/10/10 07:11:29;;;;;;;0.80;0.80;;;14.70;99.90;;;;;;5110637;28;20415;-62
2023/10/10 07:13:58;;;;;;;;;;;14.70;99.90;;;;;;5111054;28;20043;-61
2023/10/10 07:16:24;;;;;;;1.88;1.75;;;15.60;99.90;;;;;;5110984;28;20026;-62
2023/10/10 07:18:56;;;;;;;;;;;15.00;99.90;;;;;;5111356;28;20122;-61
2023/10/10 07:21:36;;;;;;;1.13;1.02;;;15.50;99.90;;;;;;5116754;28;19967;-63
2023/10/10 07:24:15;;;;;;;1.77;1.67;;;16.40;99.90;;;;;;5110598;27;20376;-65
2023/10/10 07:26:41;;;;;;;2.47;1.73;;;15.50;99.90;;;;;;5110768;28;20059;-64
2023/10/10 07:29:27;;;;;;;1.30;1.23;;;16.00;99.90;;;;;;5114508;28;20055;-62
2023/10/10 07:32:15;;;;;;;1.42;1.33;;;14.80;99.90;;;;;;5114405;28;20105;-62
2023/10/10 07:34:42;;;;;;;3.05;1.63;;;16.10;99.90;;;;;;5113339;28;20042;-61
2023/10/10 07:37:14;;;;;;;0.70;0.70;;;16.70;99.90;;;;;;5114187;27;20487;-62
2023/10/10 07:42:37;;;;;;;1.75;1.63;;;16.50;99.90;;;;;;5084098;27;20186;-63
2023/10/10 07:45:13;;;;;;;3.63;2.17;;;16.20;99.90;;;;;;5108188;28;20039;-62
2023/10/10 07:50:49;;;;;;;3.25;1.85;;;15.40;99.90;;;;;;5089660;27;20396;-65
2023/10/10 07:53:17;;;;;;;1.20;1.10;;;16.90;99.90;;;;;;5121924;27;20115;-62
2023/10/10 07:58:25;;;;;;;2.15;1.50;;;16.60;99.90;;;;;;5112393;28;20462;-62
2023/10/10 08:00:52;;;;;;;3.17;1.73;;;17.20;99.90;;;;;;5113320;28;20080;-63
2023/10/10 08:03:20;;;;;;;1.08;0.98;;;15.70;99.90;;;;;;5112813;28;20051;-62
2023/10/10 08:05:48;;;;;;;3.53;1.38;;;16.20;99.90;;;;;;5107146;27;20388;-62
2023/10/10 08:08:17;;;;;;;2.65;0.93;;;16.40;99.90;;;;;;5111355;28;20079;-65
2023/10/10 08:10:49;;;;;;;1.08;0.98;;;16.80;99.90;;;;;;5090146;28;20746;-62
2023/10/10 08:13:21;;;;;;;2.75;2.22;;;17.30;99.90;;;;;;5092924;28;20410;-64
2023/10/10 08:15:56;;;;;;;1.92;1.77;;;17.20;99.90;;;;;;5092923;28;20052;-63
2023/10/10 08:21:10;;;;;;;1.85;1.48;;;15.70;99.90;;;;;;5113075;28;20059;-64
2023/10/10 08:23:43;;;;;;;2.05;1.63;;;15.60;99.90;;;;;;5113169;28;20142;-63
2023/10/10 08:26:12;;;;;;;2.53;1.67;;;17.40;99.90;;;;;;5112908;28;20044;-61
2023/10/10 08:28:37;;;;;;;4.25;1.70;;;16.00;99.90;;;;;;5112854;28;20055;-64
2023/10/10 08:31:03;;;;;;;9.07;2.22;;;17.50;99.90;;;;;;5113013;28;20047;-64
2023/10/10 08:33:32;;;;;;;;;;;16.30;99.90;;;;;;5113335;28;20046;-64
2023/10/10 08:35:58;;;;;;;2.97;1.95;;;17.20;99.90;;;;;;5112841;28;20466;-63
2023/10/10 08:38:24;;;;;;;2.03;1.83;;;17.20;99.90;;;;;;5112772;28;20047;-63
2023/10/10 08:40:57;;;;;;;1.98;1.77;;;17.50;99.90;;;;;;5119338;27;20127;-63
2023/10/10 08:43:31;;;;;;;4.00;3.17;;;16.80;99.90;;;;;;5133344;27;20043;-62
2023/10/10 08:45:59;;;;;;;3.50;3.15;;;17.90;99.90;;;;;;5133597;27;20051;-62
2023/10/10 08:48:27;;;;;;;5.28;3.40;;;17.20;99.90;;;;;;5133974;27;20108;-63
2023/10/10 08:51:03;;;;;;;1.77;1.63;;;16.70;99.90;;;;;;5133455;27;20051;-64
2023/10/10 08:53:30;;;;;;;4.00;2.65;;;17.10;99.90;;;;;;5133505;27;20040;-62
2023/10/10 08:55:56;;;;;;;6.97;3.40;;;17.20;99.90;;;;;;5133123;27;20051;-62
2023/10/10 08:58:22;;;;;;;6.43;2.50;;;17.50;99.90;;;;;;5133547;27;20507;-62
2023/10/10 09:00:49;;;;;;;2.72;2.08;;;17.80;99.90;;;;;;5133228;27;20525;-64
2023/10/10 09:03:15;;;;;;;3.22;2.90;;;17.60;99.90;;;;;;5112328;27;20035;-62
2023/10/10 09:05:41;;;;;;;4.07;2.33;;;17.70;99.90;;;;;;5112419;28;20411;-63
2023/10/10 09:08:16;;;;;;;3.45;1.85;;;17.90;99.90;;;;;;5112113;28;20043;-62
2023/10/10 09:10:47;;;;;;;2.83;2.28;;;17.60;99.90;;;;;;5110583;28;20388;-62
2023/10/10 09:13:13;;;;;;;3.45;2.63;;;17.10;99.90;;;;;;5111922;28;20044;-62
2023/10/10 09:15:54;;;;;;;2.22;2.08;;;17.20;99.90;;;;;;5112370;28;20143;-63
2023/10/10 09:18:25;;;;;;;2.15;1.92;;;18.10;99.90;;;;;;5111435;28;20502;-62
2023/10/10 09:20:51;;;;;;;4.18;3.40;;;17.50;99.90;;;;;;5110004;27;20051;-63
2023/10/10 09:23:25;;;;;;;4.10;2.50;;;17.50;99.90;;;;;;5111140;28;20054;-62
2023/10/10 09:26:04;;;;;;;3.80;2.45;;;18.00;99.90;;;;;;5112181;28;20039;-62
2023/10/10 09:28:43;;;;;;;4.38;2.33;;;17.60;99.90;;;;;;5112146;28;20062;-64
2023/10/10 09:31:20;;;;;;;2.00;1.77;;;17.80;99.90;;;;;;5112033;28;20056;-61
2023/10/10 09:33:47;;;;;;;5.93;2.33;;;17.80;99.90;;;;;;5112258;28;20054;-63
2023/10/10 09:36:19;;;;;;;4.78;2.78;;;17.20;99.90;;;;;;5112316;28;20094;-63
2023/10/10 09:38:46;;;;;;;4.72;3.15;;;17.90;99.90;;;;;;5112107;28;20059;-62
2023/10/10 09:57:42;;;;;;;2.90;2.60;;;18.20;99.90;;;;;;5111972;28;20094;-62
2023/10/10 10:00:15;;;;;;;4.50;1.85;;;17.80;99.90;;;;;;5111563;28;20108;-63
2023/10/10 10:02:47;;;;;;;1.73;1.52;;;18.20;99.90;;;;;;5111598;28;20079;-65
2023/10/10 10:05:17;;;;;;;1.65;1.42;;;18.10;99.90;;;;;;5111571;28;20483;-62
2023/10/10 10:08:13;;;;;;;3.72;2.10;;;18.10;99.90;;;;;;5111788;28;20116;-62
2023/10/10 10:10:54;;;;;;;4.13;3.25;;;18.00;99.90;;;;;;5111383;28;20039;-63
2023/10/10 10:13:53;;;;;;;6.10;3.58;;;18.60;99.90;;;;;;5111637;28;20055;-62
2023/10/10 10:16:44;;;;;;;2.60;2.30;;;18.40;99.90;;;;;;5111766;28;20126;-63
2023/10/10 10:19:17;;;;;;;1.83;1.73;;;19.00;99.90;;;;;;5111727;28;20048;-63
2023/10/10 10:22:08;;;;;;;4.70;2.58;;;18.80;99.90;;;;;;5111580;28;20051;-64
2023/10/10 10:24:46;;;;;;;1.73;1.63;;;18.40;99.90;;;;;;5111615;28;20047;-62
2023/10/10 10:27:34;;;;;;;10.63;2.35;;;18.90;99.90;;;;;;5111510;28;20104;-63
2023/10/10 10:30:46;;;;;;;4.00;2.55;;;18.60;99.90;;;;;;5110386;28;20383;-63
2023/10/10 10:32:54;;;;;;;4.97;2.17;;;18.80;99.90;;;;;;5107957;28;20134;-63
2023/10/10 10:35:58;;;;;;;9.55;3.25;;;19.20;99.90;;;;;;5111249;28;20051;-63
2023/10/10 10:38:24;;;;;;;4.63;2.58;;;19.20;99.90;;;;;;5111232;28;20047;-62
2023/10/10 10:40:51;;;;;;;4.13;3.03;;;19.30;99.90;;;;;;5111366;28;20055;-63
2023/10/10 10:43:21;;;;;;;4.60;3.50;;;19.30;99.90;;;;;;5109982;28;20043;-63
2023/10/10 10:45:52;;;;;;;7.93;3.38;;;19.30;99.90;;;;;;5111466;28;20495;-63
2023/10/10 10:48:33;;;;;;;3.88;3.03;;;19.20;99.90;;;;;;5111146;28;20152;-63
2023/10/10 10:51:25;;;;;;;3.40;2.60;;;19.50;99.90;;;;;;5111494;28;20384;-64
2023/10/10 10:53:51;;;;;;;2.50;2.30;;;19.40;99.90;;;;;;5111129;28;20547;-63
2023/10/10 10:59:19;;;;;;;2.40;2.20;;;19.60;99.90;;;;;;5111057;28;20063;-64
2023/10/10 11:01:52;;;;;;;6.70;3.42;;;19.60;99.90;;;;;;5111823;28;20059;-63
2023/10/10 11:07:16;;;;;;;7.20;2.65;;;19.60;99.90;;;;;;5115569;28;20406;-63
2023/10/10 11:09:52;;;;;;;3.67;3.13;;;20.00;99.90;;;;;;5114198;28;20399;-63
2023/10/10 11:12:21;;;;;;;8.35;3.67;;;19.60;99.90;;;;;;5115174;28;20057;-63
2023/10/10 11:14:49;;;;;;;4.60;2.78;;;19.80;99.90;;;;;;5114909;28;20044;-64
2023/10/10 11:17:18;;;;;;;6.03;3.58;;;19.70;99.90;;;;;;5114815;28;20086;-63
2023/10/10 11:19:48;;;;;;;4.10;2.60;;;19.80;99.90;;;;;;5114756;28;20046;-65
2023/10/10 11:23:06;;;;;;;2.78;1.83;;;20.00;99.90;;;;;;5114785;27;20045;-65
2023/10/10 11:25:04;;;;;;;2.58;2.38;;;19.80;99.90;;;;;;5108651;28;20055;-63
2023/10/10 11:27:43;;;;;;;2.92;2.72;;;19.90;99.90;;;;;;5114555;28;20047;-63
2023/10/10 11:30:11;;;;;;;2.03;1.83;;;20.00;99.90;;;;;;5114437;28;20052;-63
2023/10/10 11:32:47;;;;;;;4.55;2.50;;;20.30;99.90;;;;;;5114381;27;20049;-62
2023/10/10 11:35:33;;;;;;;6.20;3.33;;;20.30;99.90;;;;;;5114694;28;20043;-64
2023/10/10 11:38:15;;;;;;;5.30;2.67;;;20.10;99.90;;;;;;5113613;28;20138;-67
2023/10/10 11:40:43;;;;;;;2.45;2.00;;;20.10;99.90;;;;;;5114215;28;20733;-63
2023/10/10 11:43:11;;;;;;;20.88;3.00;;;20.00;99.90;;;;;;5114375;28;20055;-63
2023/10/10 11:45:44;;;;;;;2.60;1.42;;;19.70;99.90;;;;;;5114279;28;20372;-62
2023/10/10 11:48:13;;;;;;;2.70;2.10;;;19.90;99.90;;;;;;5114207;28;20046;-63
2023/10/10 11:50:51;;;;;;;5.65;2.42;;;20.00;99.90;;;;;;5114109;28;20047;-63
2023/10/10 11:53:27;;;;;;;3.53;2.95;;;19.80;99.90;;;;;;5113787;28;20048;-65
2023/10/10 11:55:54;;;;;;;5.07;2.03;;;20.60;99.90;;;;;;5114218;28;20783;-63
2023/10/10 11:58:35;;;;;;;4.45;2.38;;;20.00;99.90;;;;;;5113766;28;20779;-63
2023/10/10 12:01:09;;;;;;;2.60;2.28;;;20.10;99.90;;;;;;5114025;27;20391;-64
2023/10/10 12:06:26;;;;;;;3.20;2.60;;;20.40;99.90;;;;;;5113847;27;20468;-63
2023/10/10 12:08:53;;;;;;;3.28;1.77;;;20.60;99.90;;;;;;5112926;28;20055;-63
2023/10/10 12:11:22;;;;;;;6.60;2.50;;;20.30;99.90;;;;;;5113649;28;20074;-63
2023/10/10 12:13:50;;;;;;;1.00;1.00;;;20.70;99.90;;;;;;5113182;28;20130;-63
2023/10/10 12:16:17;;;;;;;6.43;3.38;;;20.90;99.90;;;;;;5113424;28;20090;-63
2023/10/10 12:18:45;;;;;;;3.35;3.05;;;20.80;99.90;;;;;;5113687;28;20763;-63
2023/10/10 12:21:15;;;;;;;2.75;1.88;;;21.20;99.90;;;;;;5110560;27;20487;-63
2023/10/10 12:23:41;;;;;;;4.20;2.65;;;21.00;99.90;;;;;;5111700;28;20051;-63
2023/10/10 12:26:09;;;;;;;4.03;2.50;;;20.70;99.90;;;;;;5113396;28;20053;-63
2023/10/10 12:28:35;;;;;;;1.65;1.52;;;20.60;99.90;;;;;;5113215;28;20130;-65
2023/10/10 12:31:04;;;;;;;2.38;2.13;;;20.70;99.90;;;;;;5113696;28;20582;-63
2023/10/10 12:33:31;;;;;;;2.70;2.13;;;20.20;99.90;;;;;;5113342;28;20057;-66
2023/10/10 12:35:57;;;;;;;2.78;2.58;;;20.30;99.90;;;;;;5113273;28;20048;-63
2023/10/10 12:38:23;;;;;;;2.28;1.63;;;20.60;99.90;;;;;;5112744;28;20104;-64
2023/10/10 12:40:53;;;;;;;2.92;2.40;;;20.70;99.90;;;;;;5112948;28;20084;-63
2023/10/10 12:43:23;;;;;;;2.70;2.30;;;20.50;99.90;;;;;;5112882;28;20063;-64
2023/10/10 12:45:56;;;;;;;4.63;3.20;;;20.50;99.90;;;;;;5112881;28;20479;-63
2023/10/10 12:48:22;;;;;;;1.88;1.42;;;20.50;99.90;;;;;;5113284;28;20126;-64
2023/10/10 12:50:52;;;;;;;1.55;1.45;;;20.70;99.90;;;;;;5112730;28;20048;-64
2023/10/10 12:53:19;;;;;;;1.88;1.65;;;20.80;99.90;;;;;;5112962;28;20031;-63
2023/10/10 12:56:01;;;;;;;1.17;1.05;;;20.90;99.90;;;;;;5112688;28;20092;-65
2023/10/10 12:58:28;;;;;;;1.08;1.02;;;20.80;99.90;;;;;;5112866;28;20047;-63
2023/10/10 13:00:56;;;;;;;3.28;2.15;;;20.80;99.90;;;;;;5112708;28;20449;-63
2023/10/10 13:03:23;;;;;;;4.88;1.58;;;20.70;99.90;;;;;;5112471;28;20691;-63
2023/10/10 13:05:54;;;;;;;2.42;2.15;;;20.90;99.90;;;;;;5123934;27;20122;-64
2023/10/10 13:08:22;;;;;;;1.48;1.38;;;20.50;99.90;;;;;;5121884;27;20043;-64
2023/10/10 13:10:54;;;;;;;2.60;2.40;;;20.30;99.90;;;;;;5127438;27;20100;-65
2023/10/10 13:13:31;;;;;;;3.88;1.75;;;21.00;99.90;;;;;;5133320;27;20082;-63
2023/10/10 13:16:07;;;;;;;1.02;0.88;;;20.40;99.90;;;;;;5132960;27;20494;-63
2023/10/10 13:18:35;;;;;;;1.50;1.40;;;20.70;99.90;;;;;;5133587;27;20073;-63
2023/10/10 13:21:02;;;;;;;1.58;1.15;;;20.40;99.90;;;;;;5113867;27;20054;-62
2023/10/10 13:23:29;;;;;;;1.95;1.77;;;20.00;99.90;;;;;;5111447;28;20044;-64
2023/10/10 13:25:55;;;;;;;5.70;2.08;;;20.30;99.90;;;;;;5114170;27;20039;-62
2023/10/10 13:28:21;;;;;;;2.33;1.45;;;20.00;99.90;;;;;;5116887;27;20043;-62
2023/10/10 13:30:47;;;;;;;3.08;1.98;;;20.00;99.90;;;;;;5112429;28;20089;-62
2023/10/10 13:33:16;;;;;;;2.58;2.05;;;20.50;99.90;;;;;;5114604;27;20043;-63
2023/10/10 13:35:44;;;;;;;3.38;2.22;;;20.10;99.90;;;;;;5130984;27;20051;-62
2023/10/10 13:38:10;;;;;;;3.42;1.95;;;20.40;99.90;;;;;;5119234;27;20085;-63
2023/10/10 13:40:48;;;;;;;6.55;2.45;;;19.80;99.90;;;;;;5126763;27;20072;-63
2023/10/10 13:43:18;;;;;;;2.63;2.00;;;19.80;99.90;;;;;;5132310;27;20091;-64
2023/10/10 13:45:51;;;;;;;3.40;1.58;;;19.90;99.90;;;;;;5132196;27;20047;-63
2023/10/10 13:48:23;;;;;;;5.47;3.75;;;19.70;99.90;;;;;;5132961;27;20039;-62
2023/10/10 13:50:52;;;;;;;5.03;2.08;;;20.30;99.90;;;;;;5132931;27;20055;-62
2023/10/10 13:53:20;;;;;;;3.72;2.03;;;19.80;99.90;;;;;;5132674;27;20092;-62
2023/10/10 13:55:46;;;;;;;2.20;1.75;;;20.20;99.90;;;;;;5132625;27;20051;-62
2023/10/10 13:58:13;;;;;;;3.83;2.30;;;20.00;99.90;;;;;;5132547;27;20039;-63
2023/10/10 14:00:41;;;;;;;2.13;1.67;;;19.90;99.90;;;;;;5132435;27;20652;-61
2023/10/10 14:03:08;;;;;;;6.63;2.65;;;19.90;99.90;;;;;;5132528;27;20046;-62
2023/10/10 14:05:39;;;;;;;4.35;2.65;;;19.70;99.90;;;;;;5132297;27;20066;-62
2023/10/10 14:08:17;;;;;;;3.25;1.75;;;19.80;99.90;;;;;;5132647;27;20456;-62
2023/10/10 14:10:43;;;;;;;4.88;2.58;;;19.90;99.90;;;;;;5125587;27;20124;-62
2023/10/10 14:13:20;;;;;;;2.60;2.17;;;19.80;99.90;;;;;;5107338;27;20051;-62
2023/10/10 14:16:01;;;;;;;3.80;1.73;;;19.80;99.90;;;;;;5110961;28;20048;-64
2023/10/10 14:18:27;;;;;;;2.25;1.65;;;19.70;99.90;;;;;;5110601;28;20049;-62
2023/10/10 14:20:54;;;;;;;4.85;2.63;;;19.50;99.90;;;;;;5110812;28;20088;-62
2023/10/10 14:23:24;;;;;;;2.85;2.15;;;19.80;99.90;;;;;;5110746;28;20043;-67
2023/10/10 14:25:52;;;;;;;4.82;3.15;;;19.50;99.90;;;;;;5110412;28;20040;-62
2023/10/10 14:28:19;;;;;;;2.50;2.17;;;19.30;99.90;;;;;;5111247;28;20159;-62
2023/10/10 14:30:50;;;;;;;2.45;1.67;;;19.60;99.90;;;;;;5110843;28;20499;-63
2023/10/10 14:33:22;;;;;;;2.08;1.85;;;19.30;99.90;;;;;;5110523;28;20079;-62
2023/10/10 14:35:48;;;;;;;4.78;2.58;;;19.60;99.90;;;;;;5111456;28;20394;-63
2023/10/10 14:38:15;;;;;;;2.95;2.03;;;19.60;99.90;;;;;;5115272;28;20150;-62
2023/10/10 14:40:42;;;;;;;3.78;2.22;;;19.40;99.90;;;;;;5114126;28;20052;-62
2023/10/10 14:43:09;;;;;;;4.32;2.45;;;19.50;99.90;;;;;;5115194;28;20055;-62
2023/10/10 14:45:36;;;;;;;1.92;1.50;;;19.20;99.90;;;;;;5115176;28;20431;-63
2023/10/10 14:48:06;;;;;;;2.50;1.70;;;19.70;99.90;;;;;;5114564;28;20047;-63
2023/10/10 14:50:39;;;;;;;4.80;2.50;;;19.10;99.90;;;;;;5114680;28;20079;-63
2023/10/10 14:53:11;;;;;;;3.67;2.75;;;19.50;99.90;;;;;;5094298;28;20117;-62
2023/10/10 14:55:44;;;;;;;6.30;3.53;;;19.60;99.90;;;;;;5094028;28;20098;-62
2023/10/10 14:58:12;;;;;;;4.57;3.03;;;19.60;99.90;;;;;;5114751;28;20043;-63
2023/10/10 15:00:41;;;;;;;4.35;2.83;;;19.90;99.90;;;;;;5114363;28;20495;-62
2023/10/10 15:03:15;;;;;;;2.97;2.60;;;19.60;99.90;;;;;;5113871;28;20051;-65
2023/10/10 15:05:51;;;;;;;4.47;2.38;;;19.80;99.90;;;;;;5117287;27;20082;-62
2023/10/10 15:08:19;;;;;;;12.85;2.67;;;20.00;99.90;;;;;;5121348;27;20058;-64
2023/10/10 15:10:46;;;;;;;6.32;2.80;;;19.40;99.90;;;;;;5114693;27;20043;-63
2023/10/10 15:13:15;;;;;;;6.80;3.25;;;19.80;99.90;;;;;;5110930;27;20039;-63
2023/10/10 15:15:48;;;;;;;7.40;2.72;;;19.70;99.90;;;;;;5114175;28;20146;-61
2023/10/10 15:18:18;;;;;;;1.45;1.35;;;19.50;99.90;;;;;;5094551;28;20048;-62
2023/10/10 15:20:46;;;;;;;5.35;4.38;;;19.50;99.90;;;;;;5093979;28;20468;-62
2023/10/10 15:23:20;;;;;;;3.28;2.97;;;19.60;99.90;;;;;;5094036;28;20040;-62
2023/10/10 15:25:55;;;;;;;3.10;2.25;;;19.40;99.90;;;;;;5094595;28;20060;-62
2023/10/10 15:28:23;;;;;;;3.00;2.35;;;19.20;99.90;;;;;;5093686;28;20052;-62
2023/10/10 15:30:49;;;;;;;6.40;2.95;;;19.20;99.90;;;;;;5094262;28;20048;-66
2023/10/10 15:33:18;;;;;;;2.80;2.35;;;19.20;99.90;;;;;;5114368;28;20502;-64
2023/10/10 15:35:52;;;;;;;3.45;2.13;;;19.00;99.90;;;;;;5111914;27;20050;-62
2023/10/10 15:38:19;;;;;;;3.35;2.40;;;19.40;99.90;;;;;;5112664;28;20048;-64
2023/10/10 15:40:46;;;;;;;7.22;3.50;;;19.40;99.90;;;;;;5112625;28;20491;-63
2023/10/10 15:43:11;;;;;;;3.67;2.58;;;19.20;99.90;;;;;;5113651;28;20052;-62
2023/10/10 15:45:44;;;;;;;6.07;2.42;;;18.90;99.90;;;;;;5114667;28;20051;-63
2023/10/10 15:48:23;;;;;;;8.73;3.78;;;19.20;99.90;;;;;;5112395;28;20062;-63